Terminal Aerodrome Forecast
Issued by NWS Mt. Holly, NJ

Home | Current Version | Previous Version | Text Only | Print | Product List | Glossary On
Versions: 1 2 3 4 5 6 7 8 9 10 11 12 13 14 15 16 17 18 19 20 21
000
FTUS41 KPHI 222300
TAFACY
TAF
KACY 222320Z 2300/2324 07008KT P6SM SCT020 BKN040
     FM230400 07006KT P6SM OVC020
     FM230900 06008KT 6SM BR OVC012
     FM231300 06009KT P6SM OVC020
     FM231600 07010KT P6SM SCT025 BKN050=

USA.gov is the U.S. government's official web portal to all federal, state and local government web resources and services.